Time;durP1;ratioP1;P1;durP2;ratioP2;P2;SDS_P1;SDS_P2;PMS_P1;PMS_P2;Temp;Humidity;BMP_temperature;BMP_pressure;BME280_temperature;BME280_humidity;BME280_pressure;Samples;Min_cycle;Max_cycle;Signal;HPM_P1;HPM_P2
2022/10/25 00:01:32;;;;;;;9.52;2.58;;;14.60;99.90;;;;;;5025235;28;20041;-74
2022/10/25 00:03:57;;;;;;;6.50;2.40;;;14.50;99.90;;;;;;5016514;28;20051;-75
2022/10/25 00:06:23;;;;;;;10.80;2.75;;;14.60;99.90;;;;;;5049387;28;20045;-75
2022/10/25 00:08:49;;;;;;;10.27;3.08;;;14.70;99.90;;;;;;5042834;28;20056;-74
2022/10/25 00:11:22;;;;;;;10.70;2.83;;;14.80;99.90;;;;;;5044696;28;20048;-74
2022/10/25 00:13:50;;;;;;;12.95;2.90;;;14.60;99.90;;;;;;5012958;28;20501;-74
2022/10/25 00:16:17;;;;;;;13.10;2.53;;;14.50;99.90;;;;;;5037532;28;20037;-74
2022/10/25 00:18:43;;;;;;;6.65;2.17;;;14.60;99.90;;;;;;5032500;28;20048;-74
2022/10/25 00:21:08;;;;;;;5.93;2.00;;;14.60;99.90;;;;;;5049219;28;20063;-74
2022/10/25 00:23:34;;;;;;;7.90;1.80;;;14.50;99.90;;;;;;5065576;28;20045;-74
2022/10/25 00:26:04;;;;;;;7.70;1.70;;;14.50;99.90;;;;;;5044856;28;20128;-73
2022/10/25 00:28:30;;;;;;;6.90;1.92;;;14.50;99.90;;;;;;5041387;28;20563;-73
2022/10/25 00:31:03;;;;;;;6.80;1.70;;;14.40;99.90;;;;;;5016506;28;20056;-74
2022/10/25 00:33:32;;;;;;;6.22;1.13;;;14.40;99.90;;;;;;5015270;28;20041;-73
2022/10/25 00:36:08;;;;;;;4.75;1.52;;;14.40;99.90;;;;;;5032046;28;20122;-73
2022/10/25 00:38:34;;;;;;;3.70;1.20;;;14.30;99.90;;;;;;5047352;28;20070;-73
2022/10/25 00:41:00;;;;;;;4.68;1.35;;;14.30;99.90;;;;;;5045316;28;20462;-73
2022/10/25 00:43:47;;;;;;;5.30;1.55;;;14.30;99.90;;;;;;5032127;28;20136;-73
2022/10/25 00:46:20;;;;;;;6.93;1.53;;;14.20;99.90;;;;;;5032929;28;20068;-74
2022/10/25 00:48:55;;;;;;;5.78;1.60;;;14.20;99.90;;;;;;5014547;28;20788;-73
2022/10/25 00:51:23;;;;;;;6.55;1.85;;;14.30;99.90;;;;;;5043459;28;20457;-72
2022/10/25 00:53:49;;;;;;;6.78;1.83;;;14.20;99.90;;;;;;5011695;28;20046;-73
2022/10/25 00:56:24;;;;;;;6.55;1.70;;;14.30;99.90;;;;;;5052497;28;20082;-73
2022/10/25 00:58:52;;;;;;;8.30;1.70;;;14.30;99.90;;;;;;5027408;28;20119;-73
2022/10/25 01:01:18;;;;;;;8.48;1.95;;;14.20;99.90;;;;;;5042205;28;20116;-73
2022/10/25 01:03:44;;;;;;;6.70;1.50;;;14.20;99.90;;;;;;5029829;28;20180;-73
2022/10/25 01:06:22;;;;;;;5.15;1.38;;;14.20;99.90;;;;;;5031995;28;20040;-73
2022/10/25 01:08:48;;;;;;;5.13;1.25;;;14.20;99.90;;;;;;5048928;28;20060;-74
2022/10/25 01:11:14;;;;;;;14.25;1.65;;;14.10;99.90;;;;;;5015163;28;20045;-73
2022/10/25 01:13:40;;;;;;;5.40;1.02;;;14.10;99.90;;;;;;5034798;28;20045;-73
2022/10/25 01:16:31;;;;;;;15.65;2.05;;;14.10;99.90;;;;;;5023457;28;20067;-73
2022/10/25 01:19:26;;;;;;;7.82;1.27;;;14.00;99.90;;;;;;5017430;28;20058;-73
2022/10/25 01:21:59;;;;;;;7.72;1.23;;;14.00;99.90;;;;;;5042140;28;20048;-73
2022/10/25 01:24:50;;;;;;;2.42;0.90;;;14.00;99.90;;;;;;5026714;28;20098;-73
2022/10/25 01:27:31;;;;;;;5.60;1.13;;;14.00;99.90;;;;;;5030280;28;20197;-73
2022/10/25 01:30:32;;;;;;;3.42;1.25;;;14.00;99.90;;;;;;5048194;28;20036;-73
2022/10/25 01:33:21;;;;;;;3.92;0.80;;;13.90;99.90;;;;;;5002201;28;20182;-74
2022/10/25 01:35:57;;;;;;;4.50;1.20;;;14.00;99.90;;;;;;5028327;28;20098;-74
2022/10/25 01:38:37;;;;;;;2.88;0.80;;;14.00;99.90;;;;;;5028142;28;20426;-73
2022/10/25 01:41:08;;;;;;;3.78;1.00;;;14.00;99.90;;;;;;5049171;28;20470;-73
2022/10/25 01:44:03;;;;;;;3.85;0.80;;;14.00;99.90;;;;;;5048226;28;20041;-74
2022/10/25 01:46:44;;;;;;;4.45;0.80;;;14.00;99.90;;;;;;5018134;28;20132;-74
2022/10/25 01:49:17;;;;;;;4.88;1.00;;;14.00;99.90;;;;;;5032505;28;20059;-72
2022/10/25 01:51:42;;;;;;;5.47;0.80;;;13.90;99.90;;;;;;5008618;28;20054;-73
2022/10/25 01:54:24;;;;;;;5.07;1.17;;;13.90;99.90;;;;;;5030842;28;20564;-73
2022/10/25 01:57:22;;;;;;;5.15;0.90;;;13.90;99.90;;;;;;5048484;28;20053;-73
2022/10/25 01:59:54;;;;;;;;;;;13.90;99.90;;;;;;5048181;28;20056;-74
2022/10/25 02:02:55;;;;;;;3.75;0.60;;;13.90;99.90;;;;;;5044065;28;19948;-74
2022/10/25 02:05:56;;;;;;;5.05;0.85;;;13.80;99.90;;;;;;5031380;28;20040;-74
2022/10/25 02:08:28;;;;;;;5.65;1.20;;;13.70;99.90;;;;;;5014431;28;20484;-73
2022/10/25 02:11:10;;;;;;;4.10;1.02;;;13.70;99.90;;;;;;5026705;28;20548;-73
2022/10/25 02:14:08;;;;;;;5.65;0.80;;;13.60;99.90;;;;;;5045214;28;20076;-74
2022/10/25 02:16:55;;;;;;;5.95;1.20;;;13.70;99.90;;;;;;5044106;28;20041;-74
2022/10/25 02:19:47;;;;;;;4.15;1.08;;;13.80;99.90;;;;;;5024160;28;20493;-74
2022/10/25 02:22:14;;;;;;;4.35;0.90;;;13.80;99.90;;;;;;5017102;28;20051;-74
2022/10/25 02:24:42;;;;;;;5.28;1.20;;;13.80;99.90;;;;;;5024988;28;20045;-74
2022/10/25 02:27:07;;;;;;;5.53;0.90;;;13.70;99.90;;;;;;5005486;28;20080;-74
2022/10/25 02:29:33;;;;;;;3.55;1.00;;;13.80;99.90;;;;;;5031941;28;20072;-74
2022/10/25 02:31:59;;;;;;;4.95;1.13;;;13.70;99.90;;;;;;5015758;28;20045;-73
2022/10/25 02:34:24;;;;;;;6.82;1.27;;;13.70;99.90;;;;;;5033738;28;20049;-73
2022/10/25 02:36:52;;;;;;;4.88;1.20;;;13.70;99.90;;;;;;5030927;28;20459;-73
2022/10/25 02:39:19;;;;;;;5.55;1.05;;;13.70;99.90;;;;;;5033721;28;20067;-73
2022/10/25 02:41:44;;;;;;;6.45;1.40;;;13.70;99.90;;;;;;5034971;28;20072;-73
2022/10/25 02:44:10;;;;;;;4.45;0.90;;;13.60;99.90;;;;;;5017516;28;20046;-74
2022/10/25 02:46:36;;;;;;;4.13;1.00;;;13.70;99.90;;;;;;5026502;28;20466;-74
2022/10/25 02:49:02;;;;;;;6.28;1.08;;;13.70;99.90;;;;;;5007229;28;20140;-74
2022/10/25 02:51:27;;;;;;;5.55;1.33;;;13.60;99.90;;;;;;5033757;28;20041;-73
2022/10/25 02:53:53;;;;;;;4.00;1.08;;;13.70;99.90;;;;;;5048217;28;20098;-73
2022/10/25 02:56:20;;;;;;;5.10;1.60;;;13.60;99.90;;;;;;5034460;28;20486;-73
2022/10/25 02:58:46;;;;;;;4.55;1.10;;;13.60;99.90;;;;;;5033644;28;20091;-73
2022/10/25 03:01:12;;;;;;;5.30;1.45;;;13.50;99.90;;;;;;5027453;28;20049;-73
2022/10/25 03:03:38;;;;;;;8.02;1.63;;;13.50;99.90;;;;;;5017320;28;20814;-73
2022/10/25 03:06:04;;;;;;;4.93;1.05;;;13.50;99.90;;;;;;5025692;28;20037;-73
2022/10/25 03:08:29;;;;;;;7.07;1.30;;;13.50;99.90;;;;;;5027793;28;20080;-74
2022/10/25 03:10:55;;;;;;;7.63;1.08;;;13.50;99.90;;;;;;5056345;28;20057;-74
2022/10/25 03:13:21;;;;;;;7.47;1.33;;;13.50;99.90;;;;;;5031455;28;20045;-74
2022/10/25 03:15:46;;;;;;;7.82;1.33;;;13.50;99.90;;;;;;5045349;28;20060;-74
2022/10/25 03:18:12;;;;;;;9.10;1.55;;;13.40;99.90;;;;;;5015748;28;20045;-74
2022/10/25 03:20:39;;;;;;;6.35;1.48;;;13.30;99.90;;;;;;5038941;28;20036;-74
2022/10/25 03:23:04;;;;;;;6.18;1.02;;;13.40;99.90;;;;;;5048991;28;20055;-74
2022/10/25 03:25:30;;;;;;;1.75;0.80;;;13.50;99.90;;;;;;5010359;28;20041;-74
2022/10/25 03:27:56;;;;;;;4.32;1.05;;;13.50;99.90;;;;;;5050552;28;20052;-73
2022/10/25 03:30:22;;;;;;;5.30;1.35;;;13.50;99.90;;;;;;5044327;28;20049;-74
2022/10/25 03:32:47;;;;;;;5.70;1.52;;;13.50;99.90;;;;;;5049578;28;20066;-74
2022/10/25 03:35:13;;;;;;;6.00;1.60;;;13.50;99.90;;;;;;5032423;28;20044;-75
2022/10/25 03:37:39;;;;;;;6.93;1.27;;;13.50;99.90;;;;;;5038111;28;20054;-74
2022/10/25 03:40:05;;;;;;;4.88;1.20;;;13.60;99.90;;;;;;5049121;28;20041;-73
2022/10/25 03:42:31;;;;;;;7.93;1.50;;;13.50;99.90;;;;;;5047837;28;20049;-74
2022/10/25 03:44:56;;;;;;;7.90;1.70;;;13.40;99.90;;;;;;5031130;28;20047;-74
2022/10/25 03:47:22;;;;;;;7.35;2.08;;;13.50;99.90;;;;;;5030994;28;20103;-74
2022/10/25 03:49:48;;;;;;;8.02;1.80;;;13.50;99.90;;;;;;5066603;28;20041;-74
2022/10/25 03:52:14;;;;;;;6.70;1.83;;;13.40;99.90;;;;;;5029349;28;20486;-74
2022/10/25 03:54:41;;;;;;;6.03;1.50;;;13.40;99.90;;;;;;5031412;28;20677;-74
2022/10/25 03:57:07;;;;;;;10.73;2.33;;;13.40;99.90;;;;;;5029505;28;20127;-74
2022/10/25 03:59:32;;;;;;;10.38;1.88;;;13.40;99.90;;;;;;5013164;28;20386;-74
2022/10/25 04:01:59;;;;;;;8.40;1.63;;;13.40;99.90;;;;;;5050972;28;20053;-75
2022/10/25 04:04:24;;;;;;;8.80;1.80;;;13.40;99.90;;;;;;5032046;28;20569;-74
2022/10/25 04:06:50;;;;;;;8.40;1.92;;;13.50;99.90;;;;;;5064061;28;20064;-75
2022/10/25 04:09:16;;;;;;;7.30;1.65;;;13.40;99.90;;;;;;5050539;28;20502;-74
2022/10/25 04:11:42;;;;;;;6.80;1.75;;;13.40;99.90;;;;;;5048107;28;20454;-74
2022/10/25 04:14:07;;;;;;;6.40;1.58;;;13.40;99.90;;;;;;5015736;28;20052;-74
2022/10/25 04:16:33;;;;;;;12.10;2.15;;;13.40;99.90;;;;;;5026720;28;20045;-74
2022/10/25 04:18:59;;;;;;;9.40;2.08;;;13.40;99.90;;;;;;5050417;28;20040;-72
2022/10/25 04:21:25;;;;;;;8.43;1.65;;;13.40;99.90;;;;;;5021925;28;20042;-72
2022/10/25 04:23:53;;;;;;;8.93;1.90;;;13.50;99.90;;;;;;5032111;28;20445;-72
2022/10/25 04:26:19;;;;;;;5.97;1.58;;;13.50;99.90;;;;;;5046789;28;20124;-74
2022/10/25 04:28:52;;;;;;;8.15;1.90;;;13.60;99.90;;;;;;5033195;28;20068;-73
2022/10/25 04:31:18;;;;;;;9.18;1.85;;;13.60;99.90;;;;;;5022189;28;20522;-72
2022/10/25 04:33:47;;;;;;;8.45;2.10;;;13.70;99.90;;;;;;5030084;28;20040;-73
2022/10/25 04:36:13;;;;;;;7.60;1.77;;;13.70;99.90;;;;;;5048893;28;20485;-72
2022/10/25 04:38:39;;;;;;;7.93;1.90;;;13.70;99.90;;;;;;5036917;28;20127;-72
2022/10/25 04:41:04;;;;;;;7.18;1.60;;;13.50;99.90;;;;;;5048151;28;20060;-73
2022/10/25 04:43:31;;;;;;;5.53;1.73;;;13.50;99.90;;;;;;5046202;28;20079;-74
2022/10/25 04:46:01;;;;;;;8.70;2.08;;;13.50;99.90;;;;;;5011902;28;20119;-75
2022/10/25 04:48:26;;;;;;;6.15;1.67;;;13.50;99.90;;;;;;5031877;28;20049;-75
2022/10/25 04:50:52;;;;;;;6.82;2.00;;;13.50;99.90;;;;;;5032384;28;20059;-74
2022/10/25 04:53:18;;;;;;;5.30;2.10;;;13.40;99.90;;;;;;5037743;28;20041;-75
2022/10/25 04:55:43;;;;;;;8.63;1.80;;;13.40;99.90;;;;;;5058472;28;20115;-73
2022/10/25 04:58:11;;;;;;;10.07;2.60;;;13.50;99.90;;;;;;5026629;28;20049;-75
2022/10/25 05:00:36;;;;;;;11.68;2.13;;;13.40;99.90;;;;;;5046885;28;20061;-75
2022/10/25 05:03:02;;;;;;;9.23;2.22;;;13.40;99.90;;;;;;5024927;28;20056;-75
2022/10/25 05:05:28;;;;;;;9.63;2.38;;;13.40;99.90;;;;;;5042797;28;20052;-75
2022/10/25 05:07:54;;;;;;;9.50;2.00;;;13.40;99.90;;;;;;5019928;28;20041;-75
2022/10/25 05:10:19;;;;;;;10.35;2.20;;;13.40;99.90;;;;;;5045172;28;20057;-75
2022/10/25 05:12:47;;;;;;;9.52;2.10;;;13.40;99.90;;;;;;5048061;28;20052;-76
2022/10/25 05:15:12;;;;;;;9.75;2.10;;;13.40;99.90;;;;;;5016583;28;20048;-77
2022/10/25 05:17:38;;;;;;;8.07;2.25;;;13.40;99.90;;;;;;5005562;28;20418;-76
2022/10/25 05:20:05;;;;;;;12.25;2.03;;;13.50;99.90;;;;;;5042498;28;20472;-76
2022/10/25 05:22:31;;;;;;;6.50;1.90;;;13.50;99.90;;;;;;5029985;28;20045;-76
2022/10/25 05:24:56;;;;;;;7.97;1.73;;;13.40;99.90;;;;;;5031497;28;20045;-75
2022/10/25 05:27:23;;;;;;;11.00;2.40;;;13.40;99.90;;;;;;5014954;28;20052;-77
2022/10/25 05:29:49;;;;;;;13.48;2.35;;;13.50;99.90;;;;;;5040076;28;20052;-76
2022/10/25 05:32:15;;;;;;;8.63;1.90;;;13.50;99.90;;;;;;5012381;28;20045;-70
2022/10/25 05:34:41;;;;;;;9.65;2.10;;;13.50;99.90;;;;;;5035896;28;20052;-71
2022/10/25 05:37:07;;;;;;;8.32;1.95;;;13.50;99.90;;;;;;5047357;28;20102;-71
2022/10/25 05:39:32;;;;;;;10.73;2.30;;;13.50;99.90;;;;;;5062590;28;20370;-71
2022/10/25 05:42:01;;;;;;;13.15;2.97;;;13.50;99.90;;;;;;5047099;28;20060;-70
2022/10/25 05:44:26;;;;;;;;;;;13.50;99.90;;;;;;5024988;28;20378;-71
2022/10/25 05:46:54;;;;;;;9.02;1.88;;;13.40;99.90;;;;;;5007897;28;19916;-71
2022/10/25 05:49:19;;;;;;;11.77;2.05;;;13.50;99.90;;;;;;5013312;28;20048;-71
2022/10/25 05:51:45;;;;;;;9.77;2.30;;;13.50;99.90;;;;;;5043641;28;20041;-71
2022/10/25 05:54:12;;;;;;;11.02;2.70;;;13.40;99.90;;;;;;5001680;28;20045;-71
2022/10/25 05:56:39;;;;;;;13.00;3.05;;;13.40;99.90;;;;;;5027487;28;20048;-71
2022/10/25 05:59:10;;;;;;;13.93;5.13;;;13.40;99.90;;;;;;5038160;28;20045;-71
2022/10/25 06:01:37;;;;;;;11.45;2.70;;;13.40;99.90;;;;;;5029614;28;20045;-71
2022/10/25 06:04:03;;;;;;;12.73;2.60;;;13.50;99.90;;;;;;5033550;28;20527;-71
2022/10/25 06:06:29;;;;;;;10.85;2.88;;;13.50;99.90;;;;;;5015543;28;20039;-75
2022/10/25 06:08:56;;;;;;;9.57;2.35;;;13.40;99.90;;;;;;5036443;28;20059;-71
2022/10/25 06:11:22;;;;;;;13.23;3.58;;;13.40;99.90;;;;;;5038811;28;20045;-72
2022/10/25 06:13:48;;;;;;;12.80;2.97;;;13.40;99.90;;;;;;5015114;28;20048;-71
2022/10/25 06:16:15;;;;;;;12.82;2.28;;;13.50;99.90;;;;;;5001824;28;20107;-71
2022/10/25 06:18:42;;;;;;;12.32;3.15;;;13.40;99.90;;;;;;4995859;28;20045;-71
2022/10/25 06:21:09;;;;;;;6.97;2.20;;;13.50;99.90;;;;;;5046896;28;20068;-71
2022/10/25 06:23:35;;;;;;;8.00;2.10;;;13.50;99.90;;;;;;5051343;28;20044;-71
2022/10/25 06:26:02;;;;;;;12.20;2.67;;;13.50;99.90;;;;;;5031538;28;20459;-70
2022/10/25 06:28:28;;;;;;;9.93;2.22;;;13.60;99.90;;;;;;5042392;28;20382;-69
2022/10/25 06:31:05;;;;;;;12.00;2.33;;;13.60;99.90;;;;;;5052059;28;20614;-70
2022/10/25 06:33:31;;;;;;;7.47;2.30;;;13.70;99.90;;;;;;5029929;28;20044;-69
2022/10/25 06:35:57;;;;;;;11.25;2.55;;;13.80;99.90;;;;;;5028412;28;20052;-69
2022/10/25 06:38:23;;;;;;;11.65;2.40;;;13.80;99.90;;;;;;5023327;28;20048;-71
2022/10/25 06:40:49;;;;;;;11.52;2.80;;;13.60;99.90;;;;;;5026718;28;20041;-71
2022/10/25 06:43:15;;;;;;;9.93;2.63;;;13.60;99.90;;;;;;5005910;28;20044;-71
2022/10/25 06:45:41;;;;;;;10.20;2.85;;;13.50;99.90;;;;;;5029338;28;20136;-71
2022/10/25 06:48:07;;;;;;;10.63;3.05;;;13.50;99.90;;;;;;5020992;28;20045;-71
2022/10/25 06:50:32;;;;;;;9.88;2.67;;;13.50;99.90;;;;;;5035731;28;20051;-71
2022/10/25 06:52:58;;;;;;;10.80;2.85;;;13.60;99.90;;;;;;5034512;28;20179;-71
2022/10/25 06:55:24;;;;;;;11.50;2.40;;;13.50;99.90;;;;;;5047211;28;20048;-71
2022/10/25 06:57:50;;;;;;;6.88;1.98;;;13.50;99.90;;;;;;5004339;28;20481;-71
2022/10/25 07:00:16;;;;;;;13.77;3.42;;;13.60;99.90;;;;;;5019941;28;20061;-71
2022/10/25 07:02:42;;;;;;;14.23;3.33;;;13.60;99.90;;;;;;5032274;28;20048;-71
2022/10/25 07:05:07;;;;;;;11.00;2.80;;;13.60;99.90;;;;;;5029575;28;20344;-71
2022/10/25 07:07:33;;;;;;;11.73;2.78;;;13.60;99.90;;;;;;5013283;28;20060;-71
2022/10/25 07:10:00;;;;;;;8.85;2.83;;;13.60;99.90;;;;;;5033992;28;20407;-70
2022/10/25 07:12:26;;;;;;;7.85;2.60;;;13.60;99.90;;;;;;5034349;28;20494;-70
2022/10/25 07:14:52;;;;;;;9.55;2.85;;;13.60;99.90;;;;;;5016308;28;20132;-70
2022/10/25 07:17:17;;;;;;;9.05;2.60;;;13.60;99.90;;;;;;5033483;28;20367;-71
2022/10/25 07:19:43;;;;;;;7.43;2.72;;;13.60;99.90;;;;;;5063847;28;20128;-70
2022/10/25 07:22:09;;;;;;;11.65;3.22;;;13.70;99.90;;;;;;5027131;28;20045;-70
2022/10/25 07:24:34;;;;;;;8.43;3.00;;;13.70;99.90;;;;;;5048544;28;20080;-70
2022/10/25 07:27:00;;;;;;;8.88;2.80;;;13.70;99.90;;;;;;5031757;28;20114;-70
2022/10/25 07:29:26;;;;;;;9.80;2.40;;;13.60;99.90;;;;;;5073658;28;20049;-71
2022/10/25 07:31:52;;;;;;;9.00;3.17;;;13.70;99.90;;;;;;5010296;28;20041;-71
2022/10/25 07:34:19;;;;;;;10.30;2.80;;;13.60;99.90;;;;;;5015143;28;20045;-71
2022/10/25 07:36:44;;;;;;;10.10;2.35;;;13.60;99.90;;;;;;5019225;28;20168;-71
2022/10/25 07:39:11;;;;;;;10.98;3.00;;;13.60;99.90;;;;;;5046409;28;20152;-71
2022/10/25 07:41:36;;;;;;;9.20;3.30;;;13.60;99.90;;;;;;5016525;28;20435;-71
2022/10/25 07:44:02;;;;;;;13.95;3.53;;;13.60;99.90;;;;;;5012613;28;20128;-71
2022/10/25 07:46:28;;;;;;;15.35;3.35;;;13.60;99.90;;;;;;5041619;28;20171;-71
2022/10/25 07:48:54;;;;;;;10.05;3.00;;;13.50;99.90;;;;;;5027354;28;20049;-71
2022/10/25 07:51:20;;;;;;;12.07;2.95;;;13.50;99.90;;;;;;5014758;28;20068;-71
2022/10/25 07:53:46;;;;;;;13.13;4.55;;;13.60;99.90;;;;;;5032825;28;20474;-71
2022/10/25 07:56:16;;;;;;;12.23;3.88;;;13.60;99.90;;;;;;5025628;28;20047;-71
2022/10/25 07:58:42;;;;;;;9.45;2.47;;;13.70;99.90;;;;;;5013835;28;20437;-71
2022/10/25 08:01:08;;;;;;;16.48;3.60;;;13.60;99.90;;;;;;5014226;28;20068;-71
2022/10/25 08:03:34;;;;;;;11.55;2.38;;;13.60;99.90;;;;;;5030747;28;20052;-71
2022/10/25 08:06:00;;;;;;;14.05;3.28;;;13.60;99.90;;;;;;5031495;28;20044;-71
2022/10/25 08:08:26;;;;;;;9.80;2.75;;;13.60;99.90;;;;;;5047093;28;20072;-71
2022/10/25 08:10:52;;;;;;;11.48;2.95;;;13.60;99.90;;;;;;5034714;28;20137;-71
2022/10/25 08:13:19;;;;;;;17.27;2.90;;;13.60;99.90;;;;;;5007136;28;20348;-70
2022/10/25 08:15:52;;;;;;;8.98;2.38;;;13.60;99.90;;;;;;5048686;28;20072;-71
2022/10/25 08:18:17;;;;;;;10.77;3.30;;;13.60;99.90;;;;;;5043048;28;20064;-71
2022/10/25 08:20:43;;;;;;;11.63;2.92;;;13.70;99.90;;;;;;5009206;28;20437;-71
2022/10/25 08:23:09;;;;;;;8.45;2.22;;;13.70;99.90;;;;;;5024990;28;20053;-71
2022/10/25 08:25:35;;;;;;;11.23;2.92;;;13.70;99.90;;;;;;5019713;28;20102;-71
2022/10/25 08:28:01;;;;;;;6.88;2.70;;;13.70;99.90;;;;;;5030792;28;20059;-71
2022/10/25 08:30:27;;;;;;;11.18;2.33;;;13.70;99.90;;;;;;5047686;28;20470;-71
2022/10/25 08:32:52;;;;;;;15.25;2.92;;;13.70;99.90;;;;;;5012254;28;20052;-71
2022/10/25 08:35:18;;;;;;;9.82;2.38;;;13.80;99.90;;;;;;5047359;28;20071;-71
2022/10/25 08:37:44;;;;;;;9.82;2.60;;;13.80;99.90;;;;;;5024875;28;20054;-71
2022/10/25 08:40:23;;;;;;;11.45;2.55;;;13.80;99.90;;;;;;5024808;28;20053;-70
2022/10/25 08:43:15;;;;;;;16.67;2.58;;;13.90;99.90;;;;;;5051387;28;20051;-71
2022/10/25 08:45:52;;;;;;;12.65;2.58;;;14.00;99.90;;;;;;5028827;28;20410;-70
2022/10/25 08:48:19;;;;;;;10.63;2.35;;;14.00;99.90;;;;;;5029743;28;20044;-70
2022/10/25 08:50:46;;;;;;;10.25;4.15;;;14.10;99.90;;;;;;5010477;28;20478;-71
2022/10/25 08:53:24;;;;;;;10.75;2.65;;;14.20;99.90;;;;;;5032935;28;20063;-70
2022/10/25 08:55:50;;;;;;;9.52;2.72;;;14.20;99.90;;;;;;5012020;28;20546;-70
2022/10/25 08:58:19;;;;;;;13.20;2.63;;;14.30;99.90;;;;;;5017113;28;20670;-70
2022/10/25 09:00:45;;;;;;;9.90;2.72;;;14.30;99.90;;;;;;5008832;28;20059;-70
2022/10/25 09:03:15;;;;;;;10.93;2.40;;;14.40;99.90;;;;;;5032064;28;20127;-71
2022/10/25 09:05:51;;;;;;;12.00;2.65;;;14.50;99.90;;;;;;5015264;28;20037;-71
2022/10/25 09:08:23;;;;;;;11.93;2.58;;;14.60;99.90;;;;;;5041957;28;20045;-71
2022/10/25 09:11:01;;;;;;;11.18;2.40;;;14.60;99.90;;;;;;5043161;28;20095;-71
2022/10/25 09:13:38;;;;;;;7.07;2.15;;;14.70;99.90;;;;;;5043358;28;20075;-71
2022/10/25 09:16:18;;;;;;;15.45;2.53;;;14.70;99.90;;;;;;5042498;28;20144;-71
2022/10/25 09:18:53;;;;;;;9.68;2.38;;;14.90;99.90;;;;;;5011953;28;20356;-71
2022/10/25 09:21:49;;;;;;;7.68;2.47;;;14.90;99.90;;;;;;5017861;28;20471;-71
2022/10/25 09:24:27;;;;;;;7.72;2.40;;;14.90;99.90;;;;;;5025440;28;20113;-70
2022/10/25 09:27:05;;;;;;;12.13;2.85;;;14.90;99.90;;;;;;5041266;28;20406;-70
2022/10/25 09:29:31;;;;;;;;;;;14.90;99.90;;;;;;5027434;28;20050;-71
2022/10/25 09:31:58;;;;;;;9.82;2.15;;;15.00;99.90;;;;;;5042709;28;20297;-71
2022/10/25 09:34:31;;;;;;;12.48;2.72;;;15.00;99.90;;;;;;4997115;28;20076;-71
2022/10/25 09:37:19;;;;;;;9.85;2.83;;;15.20;99.90;;;;;;5047161;28;20080;-70
2022/10/25 09:40:05;;;;;;;10.02;3.05;;;15.20;99.90;;;;;;5025086;28;20049;-71
2022/10/25 09:42:40;;;;;;;6.32;2.60;;;15.20;99.90;;;;;;5041928;28;20394;-71
2022/10/25 09:45:18;;;;;;;8.63;2.20;;;15.20;99.90;;;;;;5014460;28;20427;-71
2022/10/25 09:47:52;;;;;;;9.82;2.40;;;15.20;99.90;;;;;;5039893;28;20091;-71
2022/10/25 09:50:54;;;;;;;10.85;2.45;;;15.10;99.90;;;;;;5015639;28;20135;-71
2022/10/25 09:53:21;;;;;;;11.57;2.97;;;15.10;99.90;;;;;;5006759;28;20091;-71
2022/10/25 09:55:57;;;;;;;10.75;2.63;;;15.00;99.90;;;;;;5048026;28;20041;-71
2022/10/25 09:58:31;;;;;;;10.07;3.00;;;15.00;99.90;;;;;;5040891;28;20060;-71
2022/10/25 10:00:59;;;;;;;10.75;2.65;;;15.10;99.90;;;;;;5013813;28;20041;-71
2022/10/25 10:03:34;;;;;;;7.60;2.20;;;15.10;99.90;;;;;;5025606;28;20033;-70
2022/10/25 10:06:17;;;;;;;9.68;2.45;;;15.20;99.90;;;;;;5001599;28;20045;-71
2022/10/25 10:08:48;;;;;;;9.32;2.53;;;15.40;99.90;;;;;;5019038;28;20053;-71
2022/10/25 10:11:15;;;;;;;8.40;2.38;;;15.40;99.90;;;;;;5041187;28;20064;-71
2022/10/25 10:13:56;;;;;;;7.20;2.70;;;15.50;99.90;;;;;;5012102;28;20056;-78
2022/10/25 10:16:26;;;;;;;8.32;2.33;;;15.60;99.90;;;;;;5039415;28;20045;-77
2022/10/25 10:18:55;;;;;;;7.32;2.67;;;15.70;99.90;;;;;;5048337;28;20052;-77
2022/10/25 10:21:21;;;;;;;7.18;2.42;;;15.60;99.90;;;;;;4995522;28;20132;-75
2022/10/25 10:23:53;;;;;;;7.85;2.80;;;15.50;99.90;;;;;;5030837;28;20419;-76
2022/10/25 10:26:25;;;;;;;9.13;2.88;;;15.40;99.90;;;;;;5045682;28;20041;-71
2022/10/25 10:29:14;;;;;;;5.53;2.50;;;15.30;99.90;;;;;;5038416;28;20096;-72
2022/10/25 10:31:44;;;;;;;13.70;4.57;;;15.40;99.90;;;;;;5038320;28;20474;-71
2022/10/25 10:34:32;;;;;;;11.88;2.90;;;15.40;99.90;;;;;;5046698;28;20084;-71
2022/10/25 10:37:01;;;;;;;7.93;4.18;;;15.30;99.90;;;;;;5022271;28;20041;-71
2022/10/25 10:39:27;;;;;;;10.80;3.42;;;15.30;99.90;;;;;;5030562;28;20048;-71
2022/10/25 10:42:03;;;;;;;8.20;2.95;;;15.30;99.90;;;;;;5029094;28;20057;-71
2022/10/25 10:44:33;;;;;;;6.53;3.17;;;15.30;99.90;;;;;;5031853;28;20363;-71
2022/10/25 10:47:19;;;;;;;7.13;2.92;;;15.30;99.90;;;;;;5023619;28;20041;-71
2022/10/25 10:49:44;;;;;;;10.82;4.05;;;15.40;99.90;;;;;;5021487;28;20048;-72
2022/10/25 10:52:26;;;;;;;8.23;2.50;;;15.40;99.90;;;;;;5032777;28;20045;-71
2022/10/25 10:54:52;;;;;;;7.28;2.97;;;15.40;99.90;;;;;;5030364;28;20463;-71
2022/10/25 10:57:26;;;;;;;7.93;3.00;;;15.40;99.90;;;;;;5021149;28;20056;-71
2022/10/25 10:59:52;;;;;;;7.93;4.30;;;16.20;99.90;;;;;;5028954;28;20112;-72
2022/10/25 11:02:27;;;;;;;7.55;2.33;;;16.60;99.90;;;;;;5024931;28;20150;-71
2022/10/25 11:04:54;;;;;;;6.03;2.60;;;17.00;99.90;;;;;;5033101;28;20045;-72
2022/10/25 11:07:29;;;;;;;10.02;2.22;;;17.60;99.90;;;;;;5013506;28;20045;-71
2022/10/25 11:10:21;;;;;;;6.68;2.50;;;17.80;99.90;;;;;;5042532;28;20092;-72
2022/10/25 11:13:03;;;;;;;5.15;1.90;;;17.50;99.90;;;;;;5055678;28;20045;-71
2022/10/25 11:15:33;;;;;;;8.05;2.65;;;16.70;99.90;;;;;;5034125;28;20740;-71
2022/10/25 11:18:02;;;;;;;6.13;1.70;;;16.80;99.90;;;;;;5012871;28;20077;-72
2022/10/25 11:20:43;;;;;;;10.75;2.10;;;17.20;99.90;;;;;;5038010;28;20108;-72
2022/10/25 11:23:37;;;;;;;4.68;2.35;;;16.80;99.90;;;;;;5032671;28;20033;-71
2022/10/25 11:26:16;;;;;;;6.03;1.95;;;16.90;99.90;;;;;;5038972;28;20049;-72
2022/10/25 11:29:00;;;;;;;9.20;2.38;;;17.20;99.90;;;;;;5019977;28;20041;-71
2022/10/25 11:31:32;;;;;;;5.28;2.40;;;16.60;99.90;;;;;;5042928;28;20045;-72
2022/10/25 11:34:23;;;;;;;6.78;2.30;;;16.30;99.90;;;;;;5010857;28;20049;-71
2022/10/25 11:37:10;;;;;;;8.50;2.40;;;16.00;99.90;;;;;;5045053;28;20045;-71
2022/10/25 11:39:50;;;;;;;5.00;2.40;;;16.20;99.90;;;;;;5031450;28;20053;-71
2022/10/25 11:42:24;;;;;;;9.68;2.78;;;16.10;99.90;;;;;;5048815;28;20133;-71
2022/10/25 11:45:28;;;;;;;6.72;2.97;;;15.90;99.90;;;;;;5037787;28;20079;-71
2022/10/25 11:48:22;;;;;;;8.52;2.63;;;15.90;99.90;;;;;;5016150;28;20049;-71
2022/10/25 11:51:09;;;;;;;9.30;2.70;;;15.90;99.90;;;;;;5047728;28;20041;-71
2022/10/25 11:54:12;;;;;;;7.38;2.15;;;16.00;99.90;;;;;;5037207;28;20041;-71
2022/10/25 11:57:00;;;;;;;12.10;2.65;;;16.50;99.90;;;;;;5042826;28;20045;-72
2022/10/25 11:59:38;;;;;;;8.17;2.10;;;16.70;99.90;;;;;;5048053;28;20136;-71
2022/10/25 12:02:17;;;;;;;6.85;1.77;;;16.90;99.90;;;;;;5033488;28;20292;-71
2022/10/25 12:05:12;;;;;;;6.53;1.95;;;17.50;99.90;;;;;;5044290;28;20045;-72
2022/10/25 12:08:09;;;;;;;7.50;1.80;;;18.00;99.90;;;;;;5040679;28;20048;-71
2022/10/25 12:10:40;;;;;;;8.90;2.03;;;18.00;99.90;;;;;;5018830;28;20049;-72
2022/10/25 12:13:21;;;;;;;8.13;2.50;;;17.40;99.90;;;;;;5012433;28;20505;-71
2022/10/25 12:15:48;;;;;;;9.77;2.08;;;16.80;99.90;;;;;;5014158;28;20145;-71
2022/10/25 12:18:16;;;;;;;7.03;2.10;;;16.70;99.90;;;;;;5014688;28;20056;-71
2022/10/25 12:20:44;;;;;;;7.07;2.22;;;17.10;99.90;;;;;;5014794;28;20052;-71
2022/10/25 12:23:12;;;;;;;10.68;2.47;;;17.10;99.90;;;;;;5015330;28;20087;-71
2022/10/25 12:25:47;;;;;;;7.00;2.20;;;16.80;99.90;;;;;;5012380;28;20095;-71
2022/10/25 12:28:39;;;;;;;7.65;2.42;;;16.70;99.90;;;;;;5043340;28;20511;-71
2022/10/25 12:31:14;;;;;;;8.98;2.20;;;17.00;99.90;;;;;;5021052;28;20049;-71
2022/10/25 12:33:41;;;;;;;5.88;1.95;;;17.10;99.90;;;;;;5017755;28;20540;-70
2022/10/25 12:36:40;;;;;;;6.50;2.63;;;18.30;99.90;;;;;;5019713;28;20041;-71
2022/10/25 12:39:16;;;;;;;6.88;2.30;;;19.20;98.20;;;;;;5037987;28;20053;-71
2022/10/25 12:41:43;;;;;;;4.80;1.77;;;19.30;97.70;;;;;;5007734;28;20071;-72
2022/10/25 12:44:50;;;;;;;6.85;1.88;;;19.80;96.70;;;;;;5018795;28;20475;-72
2022/10/25 12:47:45;;;;;;;9.07;2.38;;;20.20;95.30;;;;;;5074263;28;20045;-72
2022/10/25 12:50:32;;;;;;;7.95;2.40;;;19.10;96.10;;;;;;5044153;28;20476;-71
2022/10/25 12:53:20;;;;;;;5.63;2.30;;;18.30;98.40;;;;;;5035958;28;20332;-71
2022/10/25 12:55:58;;;;;;;9.13;2.60;;;19.00;96.90;;;;;;5013642;28;20477;-70
2022/10/25 12:58:58;;;;;;;5.05;1.85;;;19.00;97.90;;;;;;5043658;28;20496;-69
2022/10/25 13:01:29;;;;;;;10.27;2.40;;;19.50;96.50;;;;;;5030153;28;20336;-72
2022/10/25 13:04:32;;;;;;;7.05;2.45;;;19.50;96.60;;;;;;5028736;28;20045;-71
2022/10/25 13:06:58;;;;;;;7.03;2.45;;;18.20;98.80;;;;;;5027462;28;20067;-71
2022/10/25 13:09:29;;;;;;;11.75;3.58;;;17.90;99.90;;;;;;5002691;28;20045;-71